createdAt,value
2023-03-16T00:01:42.091Z,98250.94
2023-03-16T00:06:43.706Z,98249.25
2023-03-16T00:11:45.336Z,98249.16
2023-03-16T00:16:47.013Z,98256.13
2023-03-16T00:21:50.195Z,98248.41
2023-03-16T00:26:54.917Z,98246.41
2023-03-16T00:31:56.595Z,98254.19
2023-03-16T00:36:59.098Z,98252.38
2023-03-16T00:42:00.783Z,98256.28
2023-03-16T00:47:06.451Z,98257.09
2023-03-16T00:52:09.329Z,98263.44
2023-03-16T00:57:17.539Z,98267.69
2023-03-16T01:02:23.441Z,98269.75
2023-03-16T01:07:25.299Z,98269.47
2023-03-16T01:12:27.856Z,98275.13
2023-03-16T01:17:29.996Z,98272.75
2023-03-16T01:22:33.717Z,98277.59
2023-03-16T01:27:36.877Z,98272.81
2023-03-16T01:32:39.953Z,98273.56
2023-03-16T01:37:42.503Z,98268.63
2023-03-16T01:43:04.747Z,98267.94
2023-03-16T01:48:10.914Z,98265.94
2023-03-16T01:53:12.937Z,98271.34
2023-03-16T01:58:14.849Z,98262.13
2023-03-16T02:03:19.586Z,98269.09
2023-03-16T02:08:27.673Z,98263.25
2023-03-16T02:13:32.663Z,98252.13
2023-03-16T02:18:36.114Z,98263.34
2023-03-16T02:23:38.086Z,98255.34
2023-03-16T02:28:57.987Z,98252.81
2023-03-16T02:34:00.379Z,98249.72
2023-03-16T02:39:02.138Z,98262.13
2023-03-16T02:44:17.460Z,98253.78
2023-03-16T02:49:30.274Z,98269.16
2023-03-16T02:54:32.532Z,98267.44
2023-03-16T02:59:34.230Z,98265.91
2023-03-16T03:04:36.060Z,98268.63
2023-03-16T03:09:37.669Z,98273.72
2023-03-16T03:14:40.140Z,98272.72
2023-03-16T03:19:41.901Z,98265.41
2023-03-16T03:24:43.738Z,98272.50
2023-03-16T03:29:45.717Z,98274.47
2023-03-16T03:34:47.491Z,98273.28
2023-03-16T03:39:50.567Z,98272.94
2023-03-16T03:44:53.139Z,98281.00
2023-03-16T03:49:54.906Z,98276.38
2023-03-16T03:54:57.511Z,98275.88
2023-03-16T04:00:00.584Z,98283.59
2023-03-16T04:05:19.386Z,98286.13
2023-03-16T04:10:26.450Z,98287.28
2023-03-16T04:15:30.253Z,98279.78
2023-03-16T04:20:40.359Z,98272.38
2023-03-16T04:25:42.633Z,98272.06
2023-03-16T04:30:44.713Z,98267.13
2023-03-16T04:35:56.126Z,98268.78
2023-03-16T04:40:59.402Z,98272.63
2023-03-16T04:46:06.951Z,98274.25
2023-03-16T04:51:09.691Z,98272.63
2023-03-16T04:56:18.350Z,98263.63
2023-03-16T05:01:23.764Z,98262.31
2023-03-16T05:06:29.514Z,98264.72
2023-03-16T05:11:33.456Z,98257.81
2023-03-16T05:16:37.685Z,98252.72
2023-03-16T05:21:39.461Z,98260.59
2023-03-16T05:26:43.895Z,98263.09
2023-03-16T05:31:48.649Z,98257.81
2023-03-16T05:36:53.595Z,98269.88
2023-03-16T05:41:58.174Z,98269.72
2023-03-16T05:47:11.137Z,98276.53
2023-03-16T05:52:17.124Z,98278.25
2023-03-16T05:57:18.907Z,98272.25
2023-03-16T06:02:23.430Z,98275.72
2023-03-16T06:07:27.476Z,98281.84
2023-03-16T06:12:31.346Z,98284.38
2023-03-16T06:17:34.585Z,98287.84
2023-03-16T06:22:41.563Z,98285.63
2023-03-16T06:27:43.547Z,98298.09
2023-03-16T06:32:52.207Z,98295.78
2023-03-16T06:37:53.918Z,98302.88
2023-03-16T06:43:14.339Z,98307.84
2023-03-16T06:48:19.255Z,98298.69
2023-03-16T06:53:22.530Z,98301.16
2023-03-16T06:58:24.700Z,98307.72
2023-03-16T07:03:26.478Z,98307.78
2023-03-16T07:08:34.120Z,98305.81
2023-03-16T07:13:36.930Z,98323.16
2023-03-16T07:24:00.306Z,98308.31
2023-03-16T07:29:06.496Z,98302.59
2023-03-16T07:34:09.049Z,98318.97
2023-03-16T07:39:20.267Z,98306.53
2023-03-16T07:44:23.051Z,98316.69
2023-03-16T07:49:24.779Z,98310.66
2023-03-16T07:54:28.979Z,98300.19
2023-03-16T07:59:31.423Z,98303.88
2023-03-16T08:04:33.894Z,98308.25
2023-03-16T08:09:37.327Z,98315.69
2023-03-16T08:14:41.936Z,98312.84
2023-03-16T08:19:51.750Z,98327.09
2023-03-16T08:24:55.577Z,98320.56
2023-03-16T08:29:57.654Z,98305.13
2023-03-16T08:35:01.048Z,98314.88
2023-03-16T08:40:05.563Z,98320.75
2023-03-16T08:45:12.381Z,98331.00
2023-03-16T08:50:15.731Z,98331.88
2023-03-16T08:55:17.473Z,98335.78
2023-03-16T09:00:20.457Z,98340.69
2023-03-16T09:05:23.314Z,98350.97
2023-03-16T09:10:26.210Z,98349.09
2023-03-16T09:15:29.116Z,98341.66
2023-03-16T09:20:33.319Z,98344.88
2023-03-16T09:25:35.123Z,98344.34
2023-03-16T09:30:37.451Z,98335.75
2023-03-16T09:35:39.566Z,98336.78
2023-03-16T09:40:41.550Z,98337.41
2023-03-16T09:46:05.480Z,98346.00
2023-03-16T09:51:23.519Z,98342.19
2023-03-16T09:56:56.292Z,98342.81
2023-03-16T10:02:56.526Z,98345.63
2023-03-16T10:08:25.661Z,98345.78
2023-03-16T10:13:37.008Z,98343.41
2023-03-16T10:18:50.872Z,98342.00
2023-03-16T10:23:58.815Z,98345.97
2023-03-16T10:29:01.136Z,98341.53
2023-03-16T10:34:06.339Z,98351.88
2023-03-16T10:39:17.538Z,98343.44
2023-03-16T10:44:24.653Z,98334.78
2023-03-16T10:49:42.283Z,98331.41
2023-03-16T10:54:51.379Z,98333.63
2023-03-16T10:59:56.733Z,98327.00
2023-03-16T11:04:58.564Z,98318.31
2023-03-16T11:10:01.862Z,98314.63
2023-03-16T11:15:23.614Z,98302.25
2023-03-16T11:20:28.752Z,98301.38
2023-03-16T11:26:02.939Z,98296.69
2023-03-16T11:31:40.410Z,98291.66
2023-03-16T11:36:53.485Z,98282.91
2023-03-16T11:42:19.509Z,98282.91
2023-03-16T11:47:45.807Z,98278.97
2023-03-16T11:53:09.355Z,98270.09
2023-03-16T11:58:35.520Z,98266.81
2023-03-16T12:04:01.821Z,98260.06
2023-03-16T12:09:13.499Z,98246.75
2023-03-16T12:14:33.870Z,98245.72
2023-03-16T12:19:51.300Z,98247.50
2023-03-16T12:24:53.299Z,98246.91
2023-03-16T12:30:13.002Z,98238.84
2023-03-16T12:35:23.231Z,98232.53
2023-03-16T12:40:29.091Z,98234.06
2023-03-16T12:45:38.728Z,98225.38
2023-03-16T12:50:52.278Z,98229.56
2023-03-16T12:55:56.585Z,98221.06
2023-03-16T13:01:00.053Z,98207.69
2023-03-16T13:06:03.547Z,98201.19
2023-03-16T13:11:14.291Z,98214.50
2023-03-16T13:16:31.678Z,98188.47
2023-03-16T13:21:41.684Z,98183.19
2023-03-16T13:26:47.577Z,98186.94
2023-03-16T13:31:50.573Z,98185.34
2023-03-16T13:36:57.826Z,98170.69
2023-03-16T13:42:18.638Z,98181.66
2023-03-16T13:47:21.271Z,98170.66
2023-03-16T13:52:35.635Z,98175.78
2023-03-16T13:57:40.526Z,98166.63
2023-03-16T14:02:44.399Z,98161.81
2023-03-16T14:07:48.663Z,98165.69
2023-03-16T14:12:55.687Z,98173.66
2023-03-16T14:18:21.495Z,98155.41
2023-03-16T14:23:36.858Z,98158.47
2023-03-16T14:28:38.781Z,98158.00
2023-03-16T14:33:46.032Z,98158.34
2023-03-16T14:38:48.895Z,98143.50
2023-03-16T14:43:54.546Z,98130.50
2023-03-16T14:49:08.896Z,98116.88
2023-03-16T14:54:17.187Z,98101.00
2023-03-16T14:59:19.515Z,98102.78
2023-03-16T15:04:28.441Z,98103.53
2023-03-16T15:09:43.352Z,98087.28
2023-03-16T15:15:04.163Z,98075.91
2023-03-16T15:20:07.207Z,98066.88
2023-03-16T15:25:36.519Z,98067.81
2023-03-16T15:30:39.072Z,98058.81
2023-03-16T15:35:41.973Z,98073.63
2023-03-16T15:40:45.636Z,98069.78
2023-03-16T15:45:47.803Z,98075.34
2023-03-16T15:51:02.260Z,98063.59
2023-03-16T15:56:13.656Z,98056.19
2023-03-16T16:01:46.125Z,98058.31
2023-03-16T16:06:48.536Z,98057.69
2023-03-16T16:11:51.417Z,98068.34
2023-03-16T16:16:54.309Z,98060.91
2023-03-16T16:21:56.203Z,98057.28
2023-03-16T16:26:57.895Z,98050.63
2023-03-16T16:32:00.789Z,98051.75
2023-03-16T16:37:02.398Z,98048.63
2023-03-16T16:42:04.399Z,98057.75
2023-03-16T16:47:18.942Z,98051.78
2023-03-16T16:52:20.973Z,98056.41
2023-03-16T16:57:22.663Z,98056.00
2023-03-16T17:02:43.354Z,98050.16
2023-03-16T17:07:44.962Z,98054.75
2023-03-16T17:12:47.239Z,98052.41
2023-03-16T17:17:52.475Z,98046.66
2023-03-16T17:22:55.698Z,98043.78
2023-03-16T17:27:58.023Z,98031.84
2023-03-16T17:33:11.039Z,98028.84
2023-03-16T17:38:17.411Z,98032.06
2023-03-16T17:43:22.042Z,98034.78
2023-03-16T17:48:24.225Z,98040.34
2023-03-16T17:53:26.233Z,98040.81
2023-03-16T17:58:31.556Z,98028.38
2023-03-16T18:03:33.364Z,98016.69
2023-03-16T18:08:36.007Z,98015.69
2023-03-16T18:13:39.704Z,97996.00
2023-03-16T18:18:42.805Z,97999.72
2023-03-16T18:23:44.450Z,98007.75
2023-03-16T18:28:46.864Z,98009.22
2023-03-16T18:33:51.329Z,98011.88
2023-03-16T18:38:53.950Z,98006.41
2023-03-16T18:43:58.030Z,98017.44
2023-03-16T18:49:22.840Z,98001.13
2023-03-16T18:54:27.732Z,98004.88
2023-03-16T18:59:31.331Z,98002.00
2023-03-16T19:04:33.542Z,98000.59
2023-03-16T19:09:36.210Z,97997.81
2023-03-16T19:14:38.005Z,97991.78
2023-03-16T19:19:39.929Z,97993.16
2023-03-16T19:24:53.936Z,97990.50
2023-03-16T19:29:55.974Z,97976.72
2023-03-16T19:34:58.004Z,97977.19
2023-03-16T19:40:00.465Z,97978.41
2023-03-16T19:45:03.396Z,97983.19
2023-03-16T19:50:22.226Z,97987.97
2023-03-16T19:55:30.385Z,97993.34
2023-03-16T20:00:33.229Z,97996.28
2023-03-16T20:05:38.595Z,97995.22
2023-03-16T20:10:40.838Z,97992.66
2023-03-16T20:15:42.885Z,97990.81
2023-03-16T20:20:45.352Z,97991.81
2023-03-16T20:25:48.408Z,97986.34
2023-03-16T20:30:51.768Z,97993.00
2023-03-16T20:35:53.845Z,97972.41
2023-03-16T20:40:56.056Z,97970.72
2023-03-16T20:46:00.361Z,97961.78
2023-03-16T20:51:02.213Z,97961.66
2023-03-16T20:56:04.372Z,97941.75
2023-03-16T21:01:09.680Z,97941.88
2023-03-16T21:06:31.807Z,97948.94
2023-03-16T21:11:44.007Z,97942.50
2023-03-16T21:16:45.909Z,97928.63
2023-03-16T21:21:47.810Z,97925.06
2023-03-16T21:26:49.815Z,97921.25
2023-03-16T21:31:51.944Z,97917.00
2023-03-16T21:36:53.870Z,97913.53
2023-03-16T21:41:55.774Z,97913.03
2023-03-16T21:46:57.818Z,97921.91
2023-03-16T21:52:01.203Z,97910.69
2023-03-16T21:57:11.860Z,97894.94
2023-03-16T22:02:26.025Z,97893.22
2023-03-16T22:07:27.924Z,97877.28
2023-03-16T22:12:29.700Z,97874.50
2023-03-16T22:17:38.548Z,97874.88
2023-03-16T22:22:40.708Z,97856.59
2023-03-16T22:27:45.227Z,97853.22
2023-03-16T22:32:50.237Z,97868.84
2023-03-16T22:37:53.879Z,97865.03
2023-03-16T22:42:59.620Z,97855.56
2023-03-16T22:48:05.189Z,97847.63
2023-03-16T22:53:08.644Z,97844.38
2023-03-16T22:58:17.889Z,97837.03
2023-03-16T23:03:22.801Z,97838.19
2023-03-16T23:08:26.579Z,97833.06
2023-03-16T23:13:29.052Z,97839.00
2023-03-16T23:18:30.941Z,97826.41
2023-03-16T23:23:33.079Z,97831.53
2023-03-16T23:28:34.932Z,97815.28
2023-03-16T23:33:37.007Z,97811.78
2023-03-16T23:38:38.804Z,97804.22
2023-03-16T23:43:42.760Z,97793.38
2023-03-16T23:48:46.351Z,97797.00
2023-03-16T23:53:49.295Z,97800.28
2023-03-16T23:58:51.226Z,97793.41
